createdAt,value
2016-12-08T00:00:15.646Z,21.91
2016-12-08T00:00:32.314Z,21.95
2016-12-08T00:00:48.995Z,22
2016-12-08T00:01:05.663Z,22.02
2016-12-08T00:01:22.375Z,22.01
2016-12-08T00:01:39.043Z,22.04
2016-12-08T00:01:55.713Z,21.98
2016-12-08T00:02:12.393Z,21.94
2016-12-08T00:02:29.079Z,22.02
2016-12-08T00:02:45.774Z,22.05
2016-12-08T00:03:02.456Z,22.02
2016-12-08T00:03:19.151Z,21.98
2016-12-08T00:03:35.820Z,22.05
2016-12-08T00:03:52.474Z,22.07
2016-12-08T00:04:09.143Z,22.05
2016-12-08T00:04:25.783Z,22.05
2016-12-08T00:04:42.943Z,22.13
2016-12-08T00:04:59.603Z,22.1
2016-12-08T00:05:16.242Z,22.1
2016-12-08T00:05:32.908Z,22.16
2016-12-08T00:05:49.588Z,22.16
2016-12-08T00:06:06.258Z,22.15
2016-12-08T00:06:22.919Z,22.13
2016-12-08T00:06:39.586Z,22.22
2016-12-08T00:06:56.266Z,22.17
2016-12-08T00:07:12.917Z,22.17
2016-12-08T00:07:29.584Z,22.16
2016-12-08T00:07:46.265Z,22.15
2016-12-08T00:08:02.929Z,22.17
2016-12-08T00:08:19.636Z,22.19
2016-12-08T00:08:36.288Z,22.13
2016-12-08T00:08:52.976Z,22.12
2016-12-08T00:09:09.623Z,22.2
2016-12-08T00:09:26.314Z,22.1
2016-12-08T00:09:42.998Z,22.1
2016-12-08T00:09:59.659Z,22.15
2016-12-08T00:10:16.837Z,22.19
2016-12-08T00:10:33.525Z,22.15
2016-12-08T00:10:50.195Z,22.13
2016-12-08T00:11:06.857Z,22.17
2016-12-08T00:11:23.540Z,22.13
2016-12-08T00:11:40.207Z,22.12
2016-12-08T00:11:56.882Z,22.2
2016-12-08T00:12:13.558Z,22.12
2016-12-08T00:12:30.236Z,22.01
2016-12-08T00:12:46.935Z,22.05
2016-12-08T00:13:03.600Z,22.16
2016-12-08T00:13:20.264Z,22.05
2016-12-08T00:13:36.917Z,22.04
2016-12-08T00:13:53.575Z,22.1
2016-12-08T00:14:10.270Z,22.02
2016-12-08T00:14:26.933Z,22.02
2016-12-08T00:14:43.621Z,22.05
2016-12-08T00:15:00.832Z,22.08
2016-12-08T00:15:17.487Z,22.02
2016-12-08T00:15:34.187Z,22.07
2016-12-08T00:15:50.859Z,22.17
2016-12-08T00:16:07.524Z,22.05
2016-12-08T00:16:24.185Z,22.08
2016-12-08T00:16:40.863Z,22.02
2016-12-08T00:16:57.538Z,22.05
2016-12-08T00:17:14.168Z,22.01
2016-12-08T00:17:30.846Z,22.07
2016-12-08T00:17:47.547Z,22.15
2016-12-08T00:18:04.220Z,22.05
2016-12-08T00:18:20.889Z,22.08
2016-12-08T00:18:37.584Z,22.02
2016-12-08T00:18:54.278Z,22.01
2016-12-08T00:19:10.963Z,22.05
2016-12-08T00:19:27.600Z,22.13
2016-12-08T00:19:44.301Z,22.05
2016-12-08T00:20:00.986Z,22.07
2016-12-08T00:20:17.644Z,22.05
2016-12-08T00:20:34.341Z,22.04
2016-12-08T00:20:51.031Z,22.07
2016-12-08T00:21:07.732Z,22.07
2016-12-08T00:21:24.433Z,22.04
2016-12-08T00:21:41.095Z,22.04
2016-12-08T00:21:57.754Z,22.05
2016-12-08T00:22:14.422Z,22.02
2016-12-08T00:22:31.120Z,22.05
2016-12-08T00:22:47.803Z,22.02
2016-12-08T00:23:04.453Z,22.08
2016-12-08T00:23:21.128Z,21.98
2016-12-08T00:23:37.813Z,21.94
2016-12-08T00:23:54.475Z,21.89
2016-12-08T00:24:11.148Z,21.89
2016-12-08T00:24:27.827Z,21.97
2016-12-08T00:24:44.499Z,21.89
2016-12-08T00:25:01.170Z,21.84
2016-12-08T00:25:17.880Z,21.85
2016-12-08T00:25:34.578Z,21.91
2016-12-08T00:25:51.260Z,21.91
2016-12-08T00:26:08.001Z,21.84
2016-12-08T00:26:24.691Z,21.89
2016-12-08T00:26:41.361Z,21.84
2016-12-08T00:26:58.076Z,21.85
2016-12-08T00:27:14.754Z,21.78
2016-12-08T00:27:31.458Z,21.75
2016-12-08T00:27:48.119Z,21.85
2016-12-08T00:28:04.790Z,21.79
2016-12-08T00:28:21.511Z,21.91
2016-12-08T00:28:38.181Z,21.81
2016-12-08T00:28:54.859Z,21.92
2016-12-08T00:29:11.562Z,21.82
2016-12-08T00:29:28.297Z,21.91
2016-12-08T00:29:45.000Z,21.84
2016-12-08T00:30:01.662Z,21.91
2016-12-08T00:30:18.877Z,21.84
2016-12-08T00:30:35.573Z,21.86
2016-12-08T00:30:52.785Z,21.85
2016-12-08T00:31:09.458Z,21.78
2016-12-08T00:31:26.184Z,21.79
2016-12-08T00:31:42.977Z,21.85
2016-12-08T00:31:59.674Z,21.79
2016-12-08T00:32:16.364Z,21.74
2016-12-08T00:32:33.077Z,21.81
2016-12-08T00:32:49.762Z,21.78
2016-12-08T00:33:06.449Z,21.75
2016-12-08T00:33:23.151Z,21.85
2016-12-08T00:33:39.866Z,21.78
2016-12-08T00:33:56.544Z,21.78
2016-12-08T00:34:13.244Z,21.89
2016-12-08T00:34:29.944Z,21.86
2016-12-08T00:34:46.642Z,21.75
2016-12-08T00:35:03.335Z,21.89
2016-12-08T00:35:20.111Z,21.84
2016-12-08T00:35:36.797Z,21.78
2016-12-08T00:35:53.487Z,21.82
2016-12-08T00:36:10.704Z,21.76
2016-12-08T00:36:27.370Z,21.76
2016-12-08T00:36:44.041Z,21.85
2016-12-08T00:37:00.720Z,21.82
2016-12-08T00:37:17.400Z,21.78
2016-12-08T00:37:34.109Z,21.78
2016-12-08T00:37:50.832Z,21.91
2016-12-08T00:38:07.531Z,21.85
2016-12-08T00:38:24.217Z,21.81
2016-12-08T00:38:40.906Z,21.82
2016-12-08T00:38:57.586Z,21.84
2016-12-08T00:39:14.316Z,21.78
2016-12-08T00:39:31.054Z,21.79
2016-12-08T00:39:47.750Z,21.79
2016-12-08T00:40:04.968Z,21.79
2016-12-08T00:40:21.653Z,21.79
2016-12-08T00:40:38.340Z,21.84
2016-12-08T00:40:55.056Z,21.78
2016-12-08T00:41:11.732Z,21.84
2016-12-08T00:41:28.409Z,21.85
2016-12-08T00:41:45.092Z,21.75
2016-12-08T00:42:01.790Z,21.76
2016-12-08T00:42:18.456Z,21.84
2016-12-08T00:42:35.154Z,21.76
2016-12-08T00:42:51.856Z,21.79
2016-12-08T00:43:08.572Z,21.85
2016-12-08T00:43:25.236Z,21.79
2016-12-08T00:43:41.911Z,21.81
2016-12-08T00:43:58.603Z,21.85
2016-12-08T00:44:15.279Z,21.84
2016-12-08T00:44:31.970Z,21.78
2016-12-08T00:44:48.654Z,21.81
2016-12-08T00:45:05.340Z,21.85
2016-12-08T00:45:22.039Z,21.85
2016-12-08T00:45:38.689Z,21.85
2016-12-08T00:45:55.389Z,21.85
2016-12-08T00:46:12.070Z,21.86
2016-12-08T00:46:28.787Z,21.82
2016-12-08T00:46:45.972Z,21.89
2016-12-08T00:47:02.652Z,21.98
2016-12-08T00:47:19.329Z,21.95
2016-12-08T00:47:36.033Z,21.94
2016-12-08T00:47:52.771Z,21.95
2016-12-08T00:48:09.455Z,21.97
2016-12-08T00:48:26.166Z,21.92
2016-12-08T00:48:42.859Z,21.94
2016-12-08T00:48:59.538Z,21.95
2016-12-08T00:49:16.243Z,21.89
2016-12-08T00:49:32.938Z,21.89
2016-12-08T00:49:49.675Z,22.1
2016-12-08T00:50:06.374Z,22.02
2016-12-08T00:50:23.081Z,22.04
2016-12-08T00:50:39.786Z,21.98
2016-12-08T00:50:56.471Z,22.02
2016-12-08T00:51:13.136Z,22.01
2016-12-08T00:51:29.839Z,22.02
2016-12-08T00:51:46.501Z,22.07
2016-12-08T00:52:03.204Z,22.04
2016-12-08T00:52:19.903Z,22.05
2016-12-08T00:52:36.898Z,22.15
2016-12-08T00:52:53.826Z,22.07
2016-12-08T00:53:10.534Z,22.13
2016-12-08T00:53:27.229Z,22.15
2016-12-08T00:53:43.909Z,22.08
2016-12-08T00:54:00.577Z,22.16
2016-12-08T00:54:17.306Z,22.12
2016-12-08T00:54:34.017Z,22.15
2016-12-08T00:54:50.718Z,22.13
2016-12-08T00:55:07.954Z,22.13
2016-12-08T00:55:25.159Z,22.19
2016-12-08T00:55:41.837Z,22.16
2016-12-08T00:55:58.530Z,22.15
2016-12-08T00:56:15.264Z,22.16
2016-12-08T00:56:31.951Z,22.16
2016-12-08T00:56:48.651Z,22.1
2016-12-08T00:57:05.344Z,22.15
2016-12-08T00:57:22.095Z,22.15
2016-12-08T00:57:39.323Z,22.16
2016-12-08T00:57:56.023Z,22.19
2016-12-08T00:58:12.726Z,22.2
2016-12-08T00:58:29.370Z,22.23
2016-12-08T00:58:46.044Z,22.2
2016-12-08T00:59:02.751Z,22.16
2016-12-08T00:59:19.445Z,22.23
2016-12-08T00:59:36.090Z,22.19
2016-12-08T00:59:52.771Z,22.24
2016-12-08T01:00:09.473Z,22.22
2016-12-08T01:00:26.163Z,22.22
2016-12-08T01:00:42.855Z,22.24
2016-12-08T01:00:59.533Z,22.2
2016-12-08T01:01:16.206Z,22.24
2016-12-08T01:01:32.869Z,22.19
2016-12-08T01:01:49.603Z,22.28
2016-12-08T01:02:06.272Z,22.26
2016-12-08T01:02:22.943Z,22.26
2016-12-08T01:02:39.650Z,22.24
2016-12-08T01:02:56.343Z,22.23
2016-12-08T01:03:13.002Z,22.26
2016-12-08T01:03:29.687Z,22.23
2016-12-08T01:03:46.877Z,22.26
2016-12-08T01:04:03.539Z,22.24
2016-12-08T01:04:20.217Z,22.22
2016-12-08T01:04:36.913Z,22.19
2016-12-08T01:04:53.582Z,22.17
2016-12-08T01:05:10.275Z,22.16
2016-12-08T01:05:26.964Z,22.16
2016-12-08T01:05:43.666Z,22.22
2016-12-08T01:06:00.356Z,22.23
2016-12-08T01:06:17.564Z,22.2
2016-12-08T01:06:34.240Z,22.16
2016-12-08T01:06:51.418Z,22.15
2016-12-08T01:07:08.107Z,22.15
2016-12-08T01:07:25.311Z,22.16
2016-12-08T01:07:41.997Z,22.08
2016-12-08T01:07:58.674Z,22.07
2016-12-08T01:08:15.372Z,22.05
2016-12-08T01:08:32.070Z,22.07
2016-12-08T01:08:48.777Z,22.01
2016-12-08T01:09:05.453Z,22
2016-12-08T01:09:22.152Z,22
2016-12-08T01:09:38.844Z,21.95
2016-12-08T01:09:55.522Z,21.91
2016-12-08T01:10:12.735Z,21.95
2016-12-08T01:10:29.399Z,21.91
2016-12-08T01:10:46.079Z,22.01
2016-12-08T01:11:02.781Z,22.01
2016-12-08T01:11:19.474Z,22.02
2016-12-08T01:11:36.184Z,22.13
2016-12-08T01:11:52.900Z,22.01
2016-12-08T01:12:09.724Z,22.04
2016-12-08T01:12:26.820Z,22.04
2016-12-08T01:12:43.536Z,22.12
2016-12-08T01:13:00.235Z,22.05
2016-12-08T01:13:16.913Z,22.05
2016-12-08T01:13:33.608Z,22.05
2016-12-08T01:13:50.362Z,22.1
2016-12-08T01:14:07.055Z,22.02
2016-12-08T01:14:23.771Z,22.17
2016-12-08T01:14:40.471Z,22.12
2016-12-08T01:14:57.172Z,22.1
2016-12-08T01:15:13.874Z,22.13
2016-12-08T01:15:30.576Z,22.07
2016-12-08T01:15:47.274Z,22.2
2016-12-08T01:16:03.996Z,22.04
2016-12-08T01:16:20.716Z,22.02
2016-12-08T01:16:37.401Z,22.05
2016-12-08T01:16:54.101Z,21.98
2016-12-08T01:17:10.828Z,21.97
2016-12-08T01:17:28.043Z,21.85
2016-12-08T01:17:44.738Z,21.89
2016-12-08T01:18:01.430Z,21.85
2016-12-08T01:18:18.149Z,21.78
2016-12-08T01:18:34.883Z,21.82
2016-12-08T01:18:51.541Z,21.76
2016-12-08T01:19:08.231Z,21.72
2016-12-08T01:19:24.939Z,21.76
2016-12-08T01:19:41.621Z,21.75
2016-12-08T01:19:58.336Z,21.72
2016-12-08T01:20:15.535Z,21.7
2016-12-08T01:20:32.215Z,21.64
2016-12-08T01:20:48.908Z,21.61
2016-12-08T01:21:05.592Z,21.72
2016-12-08T01:21:22.267Z,21.63
2016-12-08T01:21:38.965Z,21.64
2016-12-08T01:21:55.651Z,21.69
2016-12-08T01:22:12.315Z,21.7
2016-12-08T01:22:29.003Z,21.72
2016-12-08T01:22:45.695Z,21.78
2016-12-08T01:23:02.388Z,21.75
2016-12-08T01:23:19.076Z,21.67
2016-12-08T01:23:35.782Z,21.66
2016-12-08T01:23:52.451Z,21.64
2016-12-08T01:24:09.109Z,21.6
2016-12-08T01:24:25.795Z,21.56
2016-12-08T01:24:42.501Z,21.61
2016-12-08T01:24:59.203Z,21.56
2016-12-08T01:25:15.892Z,21.59
2016-12-08T01:25:32.582Z,21.6
2016-12-08T01:25:49.312Z,21.61
2016-12-08T01:26:05.969Z,21.69
2016-12-08T01:26:22.638Z,21.64
2016-12-08T01:26:39.829Z,21.66
2016-12-08T01:26:56.536Z,21.66
2016-12-08T01:27:13.301Z,21.66
2016-12-08T01:27:29.961Z,21.66
2016-12-08T01:27:46.662Z,21.61
2016-12-08T01:28:03.371Z,21.54
2016-12-08T01:28:20.111Z,21.57
2016-12-08T01:28:36.853Z,21.48
2016-12-08T01:28:53.561Z,21.48
2016-12-08T01:29:10.283Z,21.51
2016-12-08T01:29:26.929Z,21.48
2016-12-08T01:29:43.619Z,21.42
2016-12-08T01:30:00.312Z,21.42
2016-12-08T01:30:17.002Z,21.49
2016-12-08T01:30:33.677Z,21.44
2016-12-08T01:30:50.347Z,21.49
2016-12-08T01:31:07.064Z,21.46
2016-12-08T01:31:23.773Z,21.42
2016-12-08T01:31:40.488Z,21.42
2016-12-08T01:31:57.157Z,21.39
2016-12-08T01:32:13.828Z,21.48
2016-12-08T01:32:30.523Z,21.38
2016-12-08T01:32:47.198Z,21.36
2016-12-08T01:33:03.871Z,21.36
2016-12-08T01:33:20.542Z,21.38
2016-12-08T01:33:37.737Z,21.35
2016-12-08T01:33:54.412Z,21.41
2016-12-08T01:34:11.064Z,21.45
2016-12-08T01:34:27.765Z,21.39
2016-12-08T01:34:44.443Z,21.36
2016-12-08T01:35:01.128Z,21.46
2016-12-08T01:35:17.807Z,21.39
2016-12-08T01:35:34.492Z,21.44
2016-12-08T01:35:51.197Z,21.41
2016-12-08T01:36:07.863Z,21.45
2016-12-08T01:36:24.554Z,21.48
2016-12-08T01:36:41.246Z,21.45
2016-12-08T01:36:58.081Z,21.48
2016-12-08T01:37:14.768Z,21.44
2016-12-08T01:37:31.670Z,21.48
2016-12-08T01:37:48.390Z,21.42
2016-12-08T01:38:05.179Z,21.42
2016-12-08T01:38:21.889Z,21.36
2016-12-08T01:38:38.637Z,21.33
2016-12-08T01:38:55.308Z,21.36
2016-12-08T01:39:12.061Z,21.35
2016-12-08T01:39:28.752Z,21.36
2016-12-08T01:39:45.444Z,21.36
2016-12-08T01:40:02.199Z,21.44
2016-12-08T01:40:19.385Z,21.41
2016-12-08T01:40:36.108Z,21.42
2016-12-08T01:40:52.789Z,21.44
2016-12-08T01:41:09.491Z,21.42
2016-12-08T01:41:26.172Z,21.45
2016-12-08T01:41:42.868Z,21.44
2016-12-08T01:41:59.560Z,21.48
2016-12-08T01:42:16.762Z,21.38
2016-12-08T01:42:33.451Z,21.42
2016-12-08T01:42:50.142Z,21.45
2016-12-08T01:43:06.831Z,21.48
2016-12-08T01:43:23.532Z,21.46
2016-12-08T01:43:40.196Z,21.42
2016-12-08T01:43:56.936Z,21.45
2016-12-08T01:44:13.608Z,21.46
2016-12-08T01:44:30.278Z,21.42
2016-12-08T01:44:47.000Z,21.42
2016-12-08T01:45:03.690Z,21.45
2016-12-08T01:45:20.351Z,21.44
2016-12-08T01:45:37.054Z,21.46
2016-12-08T01:45:53.779Z,21.46
2016-12-08T01:46:10.480Z,21.42
2016-12-08T01:46:27.188Z,21.44
2016-12-08T01:46:43.926Z,21.45
2016-12-08T01:47:00.633Z,21.45
2016-12-08T01:47:17.333Z,21.36
2016-12-08T01:47:34.027Z,21.33
2016-12-08T01:47:50.727Z,21.38
2016-12-08T01:48:07.591Z,21.41
2016-12-08T01:48:24.810Z,21.46
2016-12-08T01:48:41.516Z,21.41
2016-12-08T01:48:58.195Z,21.42
2016-12-08T01:49:14.877Z,21.41
2016-12-08T01:49:32.124Z,21.45
2016-12-08T01:49:48.805Z,21.45
2016-12-08T01:50:05.464Z,21.42
2016-12-08T01:50:22.176Z,21.48
2016-12-08T01:50:38.875Z,21.44
2016-12-08T01:50:55.554Z,21.44
2016-12-08T01:51:12.232Z,21.46
2016-12-08T01:51:28.892Z,21.48
2016-12-08T01:51:45.575Z,21.41
2016-12-08T01:52:02.282Z,21.42
2016-12-08T01:52:18.983Z,21.42
2016-12-08T01:52:35.668Z,21.39
2016-12-08T01:52:52.358Z,21.38
2016-12-08T01:53:09.053Z,21.36
2016-12-08T01:53:25.720Z,21.45
2016-12-08T01:53:42.395Z,21.36
2016-12-08T01:53:59.100Z,21.42
2016-12-08T01:54:15.812Z,21.44
2016-12-08T01:54:32.481Z,21.49
2016-12-08T01:54:49.191Z,21.39
2016-12-08T01:55:05.915Z,21.42
2016-12-08T01:55:22.681Z,21.42
2016-12-08T01:55:39.926Z,21.36
2016-12-08T01:55:56.627Z,21.31
2016-12-08T01:56:13.338Z,21.39
2016-12-08T01:56:30.021Z,21.38
2016-12-08T01:56:46.708Z,21.38
2016-12-08T01:57:03.395Z,21.3
2016-12-08T01:57:20.081Z,21.33
2016-12-08T01:57:36.767Z,21.33
2016-12-08T01:57:53.448Z,21.38
2016-12-08T01:58:10.126Z,21.38
2016-12-08T01:58:26.824Z,21.39
2016-12-08T01:58:43.465Z,21.45
2016-12-08T01:59:00.166Z,21.38
2016-12-08T01:59:16.857Z,21.44
2016-12-08T01:59:33.531Z,21.36
2016-12-08T01:59:50.199Z,21.39
2016-12-08T02:00:06.912Z,21.35
2016-12-08T02:00:23.816Z,21.38
2016-12-08T02:00:40.500Z,21.39
2016-12-08T02:00:57.195Z,21.35
2016-12-08T02:01:13.855Z,21.33
2016-12-08T02:01:30.532Z,21.42
2016-12-08T02:01:47.256Z,21.36
2016-12-08T02:02:03.952Z,21.42
2016-12-08T02:02:20.632Z,21.39
2016-12-08T02:02:51.843Z,21.39
2016-12-08T02:03:08.533Z,21.42
2016-12-08T02:03:25.247Z,21.45
2016-12-08T02:03:41.950Z,21.48
2016-12-08T02:03:58.670Z,21.44
2016-12-08T02:04:15.854Z,21.46
2016-12-08T02:04:32.569Z,21.54
2016-12-08T02:04:49.247Z,21.53
2016-12-08T02:05:06.457Z,21.48
2016-12-08T02:05:23.129Z,21.48
2016-12-08T02:05:39.796Z,21.51
2016-12-08T02:05:56.476Z,21.48
2016-12-08T02:06:13.157Z,21.49
2016-12-08T02:06:29.816Z,21.54
2016-12-08T02:06:46.577Z,21.38
2016-12-08T02:07:03.263Z,21.45
2016-12-08T02:07:19.976Z,21.53
2016-12-08T02:07:36.720Z,21.49
2016-12-08T02:07:53.411Z,21.46
2016-12-08T02:08:10.100Z,21.46
2016-12-08T02:08:26.798Z,21.45
2016-12-08T02:08:44.004Z,21.44
2016-12-08T02:09:00.694Z,21.46
2016-12-08T02:09:17.391Z,21.45
2016-12-08T02:09:34.088Z,21.38
2016-12-08T02:09:50.798Z,21.45
2016-12-08T02:10:07.478Z,21.42
2016-12-08T02:10:24.140Z,21.44
2016-12-08T02:10:40.817Z,21.44
2016-12-08T02:10:57.527Z,21.39
2016-12-08T02:11:14.214Z,21.38
2016-12-08T02:11:30.875Z,21.26
2016-12-08T02:11:47.576Z,21.23
2016-12-08T02:12:04.305Z,21.21
2016-12-08T02:12:21.525Z,21.21
2016-12-08T02:12:38.174Z,21.21
2016-12-08T02:12:54.849Z,21.24
2016-12-08T02:13:11.553Z,21.21
2016-12-08T02:13:28.248Z,21.26
2016-12-08T02:13:44.946Z,21.21
2016-12-08T02:14:02.140Z,21.24
2016-12-08T02:14:18.816Z,21.26
2016-12-08T02:14:35.496Z,21.2
2016-12-08T02:14:52.155Z,21.19
2016-12-08T02:15:08.864Z,21.17
2016-12-08T02:15:25.551Z,21.17
2016-12-08T02:15:42.285Z,21.24
2016-12-08T02:15:58.989Z,21.16
2016-12-08T02:16:15.646Z,21.19
2016-12-08T02:16:32.345Z,21.17
2016-12-08T02:16:49.025Z,21.17
2016-12-08T02:17:05.720Z,21.09
2016-12-08T02:17:22.441Z,21.09
2016-12-08T02:17:39.114Z,21.06
2016-12-08T02:17:55.784Z,21.12
2016-12-08T02:18:12.979Z,21.08
2016-12-08T02:18:30.207Z,21.01
2016-12-08T02:18:46.883Z,21.02
2016-12-08T02:19:03.558Z,21.01
2016-12-08T02:19:20.308Z,20.98
2016-12-08T02:19:36.972Z,20.94
2016-12-08T02:19:53.661Z,20.9
2016-12-08T02:20:10.342Z,20.91
2016-12-08T02:20:27.052Z,20.98
2016-12-08T02:20:44.237Z,20.96
2016-12-08T02:21:00.919Z,20.96
2016-12-08T02:21:17.615Z,20.99
2016-12-08T02:21:34.304Z,20.99
2016-12-08T02:21:50.972Z,20.99
2016-12-08T02:22:07.644Z,20.99
2016-12-08T02:22:24.291Z,20.96
2016-12-08T02:22:40.962Z,21.02
2016-12-08T02:22:57.631Z,20.99
2016-12-08T02:23:14.322Z,21.02
2016-12-08T02:23:31.013Z,20.96
2016-12-08T02:23:48.191Z,21.01
2016-12-08T02:24:04.859Z,21.05
2016-12-08T02:24:21.555Z,20.98
2016-12-08T02:24:38.264Z,21.11
2016-12-08T02:24:54.935Z,21.06
2016-12-08T02:25:11.633Z,21.11
2016-12-08T02:25:28.327Z,21.12
2016-12-08T02:25:45.008Z,21.12
2016-12-08T02:26:01.693Z,21.05
2016-12-08T02:26:18.394Z,21.06
2016-12-08T02:26:35.087Z,21.11
2016-12-08T02:26:52.284Z,21.11
2016-12-08T02:27:08.928Z,21.06
2016-12-08T02:27:25.616Z,21.2
2016-12-08T02:27:42.287Z,21.21
2016-12-08T02:27:58.943Z,21.21
2016-12-08T02:28:15.636Z,21.2
2016-12-08T02:28:32.343Z,21.24
2016-12-08T02:28:49.026Z,21.2
2016-12-08T02:29:05.713Z,21.17
2016-12-08T02:29:22.416Z,21.26
2016-12-08T02:29:39.097Z,21.23
2016-12-08T02:29:55.800Z,21.2
2016-12-08T02:30:12.485Z,21.2
2016-12-08T02:30:29.170Z,21.12
2016-12-08T02:30:45.841Z,21.2
2016-12-08T02:31:02.538Z,21.23
2016-12-08T02:31:19.225Z,21.2
2016-12-08T02:31:35.928Z,21.17
2016-12-08T02:31:53.132Z,21.26
2016-12-08T02:32:09.806Z,21.17
2016-12-08T02:32:26.478Z,21.17
2016-12-08T02:32:43.186Z,21.23
2016-12-08T02:32:59.891Z,21.2
2016-12-08T02:33:16.585Z,21.2
2016-12-08T02:33:33.263Z,21.21
2016-12-08T02:33:50.451Z,21.17
2016-12-08T02:34:07.126Z,21.14
2016-12-08T02:34:23.815Z,21.24
2016-12-08T02:34:40.481Z,21.3
2016-12-08T02:34:57.161Z,21.27
2016-12-08T02:35:13.842Z,21.27
2016-12-08T02:35:30.508Z,21.21
2016-12-08T02:35:47.186Z,21.21
2016-12-08T02:36:03.875Z,21.17
2016-12-08T02:36:20.538Z,21.23
2016-12-08T02:36:37.222Z,21.24
2016-12-08T02:36:53.876Z,21.27
2016-12-08T02:37:10.565Z,21.3
2016-12-08T02:37:27.231Z,21.3
2016-12-08T02:37:43.910Z,21.42
2016-12-08T02:38:00.583Z,21.41
2016-12-08T02:38:17.299Z,21.31
2016-12-08T02:38:34.002Z,21.33
2016-12-08T02:38:50.672Z,21.36
2016-12-08T02:39:07.365Z,21.35
2016-12-08T02:39:24.033Z,21.21
2016-12-08T02:39:40.708Z,21.33
2016-12-08T02:39:57.412Z,21.33
2016-12-08T02:40:14.109Z,21.41
2016-12-08T02:40:30.784Z,21.31
2016-12-08T02:40:47.484Z,21.41
2016-12-08T02:41:04.169Z,21.3
2016-12-08T02:41:21.336Z,21.31
2016-12-08T02:41:38.012Z,21.33
2016-12-08T02:41:54.731Z,21.39
2016-12-08T02:42:11.417Z,21.42
2016-12-08T02:42:28.100Z,21.35
2016-12-08T02:42:44.795Z,21.42
2016-12-08T02:43:01.489Z,21.44
2016-12-08T02:43:18.180Z,21.41
2016-12-08T02:43:34.855Z,21.45
2016-12-08T02:43:51.545Z,21.51
2016-12-08T02:44:08.284Z,21.39
2016-12-08T02:44:24.946Z,21.51
2016-12-08T02:44:41.635Z,21.45
2016-12-08T02:44:58.304Z,21.46
2016-12-08T02:45:14.994Z,21.41
2016-12-08T02:45:31.657Z,21.46
2016-12-08T02:45:48.321Z,21.46
2016-12-08T02:46:04.988Z,21.51
2016-12-08T02:46:21.670Z,21.51
2016-12-08T02:46:38.852Z,21.49
2016-12-08T02:46:55.542Z,21.54
2016-12-08T02:47:12.216Z,21.51
2016-12-08T02:47:28.890Z,21.51
2016-12-08T02:47:45.569Z,21.53
2016-12-08T02:48:02.274Z,21.56
2016-12-08T02:48:18.972Z,21.51
2016-12-08T02:48:35.688Z,21.54
2016-12-08T02:48:52.335Z,21.57
2016-12-08T02:49:09.009Z,21.51
2016-12-08T02:49:25.700Z,21.53
2016-12-08T02:49:42.377Z,21.45
2016-12-08T02:49:59.054Z,21.46
2016-12-08T02:50:15.727Z,21.48
2016-12-08T02:50:32.398Z,21.42
2016-12-08T02:50:49.095Z,21.49
2016-12-08T02:51:05.793Z,21.44
2016-12-08T02:51:22.466Z,21.42
2016-12-08T02:51:39.166Z,21.45
2016-12-08T02:51:55.863Z,21.45
2016-12-08T02:52:12.565Z,21.42
2016-12-08T02:52:29.215Z,21.46
2016-12-08T02:52:45.905Z,21.38
2016-12-08T02:53:02.598Z,21.42
2016-12-08T02:53:19.256Z,21.42
2016-12-08T02:53:35.964Z,21.45
2016-12-08T02:53:52.649Z,21.36
2016-12-08T02:54:09.316Z,21.39
2016-12-08T02:54:26.013Z,21.27
2016-12-08T02:54:42.688Z,21.31
2016-12-08T02:54:59.393Z,21.27
2016-12-08T02:55:16.105Z,21.24
2016-12-08T02:55:32.819Z,21.21
2016-12-08T02:55:49.493Z,21.23
2016-12-08T02:56:06.179Z,21.21
2016-12-08T02:56:22.863Z,21.31
2016-12-08T02:56:39.584Z,21.23
2016-12-08T02:56:56.249Z,21.17
2016-12-08T02:57:12.921Z,21.26
2016-12-08T02:57:29.609Z,21.17
2016-12-08T02:57:46.317Z,21.24
2016-12-08T02:58:03.004Z,21.16
2016-12-08T02:58:19.698Z,21.17
2016-12-08T02:58:37.421Z,21.24
2016-12-08T02:58:54.115Z,21.35
2016-12-08T02:59:10.790Z,21.27
2016-12-08T02:59:27.476Z,21.23
2016-12-08T02:59:44.168Z,21.33
2016-12-08T03:00:00.961Z,21.26
2016-12-08T03:00:17.658Z,21.21
2016-12-08T03:00:34.375Z,21.33
2016-12-08T03:00:51.079Z,21.24
2016-12-08T03:01:07.766Z,21.23
2016-12-08T03:01:24.459Z,21.27
2016-12-08T03:01:41.158Z,21.3
2016-12-08T03:01:57.826Z,21.24
2016-12-08T03:02:14.507Z,21.27
2016-12-08T03:02:31.224Z,21.16
2016-12-08T03:02:47.930Z,21.23
2016-12-08T03:03:04.606Z,21.17
2016-12-08T03:03:21.299Z,21.16
2016-12-08T03:03:37.992Z,21.21
2016-12-08T03:03:54.691Z,21.17
2016-12-08T03:04:11.366Z,21.12
2016-12-08T03:04:28.047Z,21.16
2016-12-08T03:04:44.781Z,21.08
2016-12-08T03:05:01.449Z,21.11
2016-12-08T03:05:18.712Z,21.12
2016-12-08T03:05:35.426Z,21.06
2016-12-08T03:05:52.111Z,20.99
2016-12-08T03:06:08.788Z,21.04
2016-12-08T03:06:25.481Z,20.99
2016-12-08T03:06:42.149Z,20.99
2016-12-08T03:06:58.849Z,21.05
2016-12-08T03:07:15.523Z,21.12
2016-12-08T03:07:32.214Z,21.11
2016-12-08T03:07:48.908Z,21.11
2016-12-08T03:08:05.602Z,21.11
2016-12-08T03:08:22.276Z,21.06
2016-12-08T03:08:38.979Z,21.12
2016-12-08T03:08:55.666Z,21.12
2016-12-08T03:09:12.866Z,21.08
2016-12-08T03:09:29.562Z,21.04
2016-12-08T03:09:46.236Z,21.04
2016-12-08T03:10:02.893Z,21.04
2016-12-08T03:10:19.574Z,21.05
2016-12-08T03:10:36.243Z,21.01
2016-12-08T03:10:52.941Z,21.04
2016-12-08T03:11:10.149Z,20.93
2016-12-08T03:11:26.863Z,21.04
2016-12-08T03:11:43.558Z,20.93
2016-12-08T03:12:00.232Z,20.94
2016-12-08T03:12:16.902Z,20.89
2016-12-08T03:12:33.598Z,20.87
2016-12-08T03:12:50.297Z,20.93
2016-12-08T03:13:06.990Z,20.91
2016-12-08T03:13:23.683Z,20.84
2016-12-08T03:13:40.359Z,20.86
2016-12-08T03:13:57.046Z,20.89
2016-12-08T03:14:13.735Z,20.94
2016-12-08T03:14:30.421Z,20.93
2016-12-08T03:14:47.122Z,20.98
2016-12-08T03:15:03.819Z,20.98
2016-12-08T03:15:20.497Z,20.96
2016-12-08T03:15:37.169Z,20.96
2016-12-08T03:15:53.850Z,20.98
2016-12-08T03:16:10.527Z,21.06
2016-12-08T03:16:27.225Z,20.99
2016-12-08T03:16:43.924Z,20.99
2016-12-08T03:17:00.617Z,21.01
2016-12-08T03:17:17.319Z,21.01
2016-12-08T03:17:34.023Z,20.98
2016-12-08T03:17:50.689Z,20.94
2016-12-08T03:18:07.375Z,20.98
2016-12-08T03:18:24.055Z,20.98
2016-12-08T03:18:40.758Z,21.01
2016-12-08T03:18:57.447Z,21.01
2016-12-08T03:19:14.153Z,20.94
2016-12-08T03:19:30.839Z,21.04
2016-12-08T03:19:47.518Z,20.98
2016-12-08T03:20:04.229Z,21.05
2016-12-08T03:20:20.883Z,21.02
2016-12-08T03:20:37.556Z,21.01
2016-12-08T03:20:54.258Z,21.04
2016-12-08T03:21:10.943Z,21.04
2016-12-08T03:21:27.646Z,21.06
2016-12-08T03:21:44.346Z,20.99
2016-12-08T03:22:01.031Z,21.02
2016-12-08T03:22:17.704Z,20.99
2016-12-08T03:22:34.386Z,20.98
2016-12-08T03:22:51.073Z,20.99
2016-12-08T03:23:07.746Z,20.96
2016-12-08T03:23:24.431Z,20.93
2016-12-08T03:23:41.113Z,20.99
2016-12-08T03:23:57.789Z,20.99
2016-12-08T03:24:14.517Z,21.02
2016-12-08T03:24:31.218Z,20.93
2016-12-08T03:24:47.903Z,20.99
2016-12-08T03:25:04.583Z,21.06
2016-12-08T03:25:21.281Z,21.06
2016-12-08T03:25:37.955Z,21.06
2016-12-08T03:25:54.670Z,21.08
2016-12-08T03:26:11.355Z,21.05
2016-12-08T03:26:28.056Z,21.06
2016-12-08T03:26:44.728Z,21.11
2016-12-08T03:27:01.427Z,21.05
2016-12-08T03:27:18.103Z,20.94
2016-12-08T03:27:34.808Z,21.05
2016-12-08T03:27:52.011Z,20.98
2016-12-08T03:28:09.229Z,21.01
2016-12-08T03:28:25.894Z,21.06
2016-12-08T03:28:42.569Z,21.08
2016-12-08T03:28:59.238Z,21.05
2016-12-08T03:29:15.911Z,20.99
2016-12-08T03:29:32.598Z,20.98
2016-12-08T03:29:49.291Z,21.06
2016-12-08T03:30:06.502Z,21.04
2016-12-08T03:30:23.192Z,21.02
2016-12-08T03:30:39.859Z,20.98
2016-12-08T03:30:56.541Z,20.94
2016-12-08T03:31:13.236Z,21.02
2016-12-08T03:31:29.932Z,20.96
2016-12-08T03:31:46.618Z,20.99
2016-12-08T03:32:03.313Z,20.99
2016-12-08T03:32:20.031Z,21.01
2016-12-08T03:32:36.716Z,20.98
2016-12-08T03:32:53.391Z,20.94
2016-12-08T03:33:10.071Z,20.96
2016-12-08T03:33:26.754Z,20.99
2016-12-08T03:33:43.466Z,20.99
2016-12-08T03:34:00.139Z,20.98
2016-12-08T03:34:16.827Z,20.98
2016-12-08T03:34:33.481Z,20.93
2016-12-08T03:34:50.161Z,20.99
2016-12-08T03:35:06.865Z,20.93
2016-12-08T03:35:23.558Z,20.93
2016-12-08T03:35:40.250Z,20.89
2016-12-08T03:35:56.931Z,20.86
2016-12-08T03:36:13.595Z,20.84